Time;durP1;ratioP1;P1;durP2;ratioP2;P2;SDS_P1;SDS_P2;PMS_P1;PMS_P2;Temp;Humidity;BMP_temperature;BMP_pressure;BME280_temperature;BME280_humidity;BME280_pressure;Samples;Min_cycle;Max_cycle;Signal;HPM_P1;HPM_P2
2020/12/04 00:00:36;;;;;;;37.47;26.60;;;2.20;99.90;;;;;;6153735;29;20483;-64
2020/12/04 00:03:39;;;;;;;34.20;25.73;;;2.20;99.90;;;;;;6154415;28;20466;-65
2020/12/04 00:06:41;;;;;;;37.87;26.83;;;2.20;99.90;;;;;;6177506;28;20939;-66
2020/12/04 00:09:45;;;;;;;36.20;26.30;;;2.20;99.90;;;;;;6177548;28;20501;-66
2020/12/04 00:12:47;;;;;;;38.00;27.30;;;2.20;99.90;;;;;;6153404;28;20804;-66
2020/12/04 00:15:49;;;;;;;37.23;27.30;;;2.20;99.90;;;;;;6152972;28;20467;-66
2020/12/04 00:18:52;;;;;;;34.67;25.60;;;2.30;99.90;;;;;;6167503;28;20473;-65
2020/12/04 00:21:54;;;;;;;38.90;26.67;;;2.30;99.90;;;;;;6177063;28;20895;-66
2020/12/04 00:24:57;;;;;;;33.23;25.30;;;2.20;99.90;;;;;;6177187;28;20817;-65
2020/12/04 00:27:59;;;;;;;36.77;25.43;;;2.30;99.90;;;;;;6177094;28;20966;-60
2020/12/04 00:31:02;;;;;;;41.20;25.17;;;2.30;99.90;;;;;;6180682;28;20956;-60
2020/12/04 00:34:04;;;;;;;35.80;27.80;;;2.30;99.90;;;;;;6198425;28;20483;-61
2020/12/04 00:37:06;;;;;;;40.50;26.43;;;2.30;99.90;;;;;;6198392;28;20476;-61
2020/12/04 00:40:09;;;;;;;34.10;25.37;;;2.30;99.90;;;;;;6193083;28;20480;-61
2020/12/04 00:43:12;;;;;;;36.93;26.70;;;2.30;99.90;;;;;;6198487;28;20888;-61
2020/12/04 00:46:14;;;;;;;37.93;26.47;;;2.30;99.90;;;;;;6198374;28;20473;-61
2020/12/04 00:49:16;;;;;;;32.27;24.83;;;2.40;99.90;;;;;;6200101;28;20468;-62
2020/12/04 00:52:19;;;;;;;34.60;24.90;;;2.40;99.90;;;;;;6195074;28;22004;-62
2020/12/04 00:55:22;;;;;;;33.97;24.33;;;2.40;99.90;;;;;;6197890;28;20461;-62
2020/12/04 00:58:24;;;;;;;42.10;27.07;;;2.50;99.90;;;;;;6193813;28;20478;-62
2020/12/04 01:01:27;;;;;;;34.80;25.27;;;2.40;99.90;;;;;;6188503;28;20483;-62
2020/12/04 01:04:29;;;;;;;37.57;26.50;;;2.40;99.90;;;;;;6190261;28;20470;-62
2020/12/04 01:07:31;;;;;;;31.87;24.50;;;2.40;99.90;;;;;;6185129;28;20493;-62
2020/12/04 01:10:37;;;;;;;36.90;26.97;;;2.40;99.90;;;;;;6189881;28;20491;-62
2020/12/04 01:13:39;;;;;;;37.83;25.47;;;2.40;99.90;;;;;;6187914;28;20446;-62
2020/12/04 01:16:42;;;;;;;37.43;27.73;;;2.40;99.90;;;;;;6177590;28;20449;-62
2020/12/04 01:19:44;;;;;;;34.17;26.50;;;2.40;99.90;;;;;;6163437;28;20950;-62
2020/12/04 01:22:47;;;;;;;35.43;25.40;;;2.30;99.90;;;;;;6177552;28;20450;-62
2020/12/04 01:25:50;;;;;;;39.33;25.40;;;2.30;99.90;;;;;;6177416;28;20481;-62
2020/12/04 01:28:53;;;;;;;35.50;25.20;;;2.20;99.90;;;;;;6176232;28;20783;-62
2020/12/04 01:31:55;;;;;;;37.40;26.03;;;2.30;99.90;;;;;;6176955;28;21143;-62
2020/12/04 01:34:57;;;;;;;33.23;24.87;;;2.30;99.90;;;;;;6177327;28;20462;-62
2020/12/04 01:37:59;;;;;;;34.83;24.10;;;2.30;99.90;;;;;;6177336;28;20469;-62
2020/12/04 01:41:03;;;;;;;37.73;25.67;;;2.30;99.90;;;;;;6176855;28;20485;-62
2020/12/04 01:44:05;;;;;;;32.67;23.67;;;2.30;99.90;;;;;;6176920;28;20966;-61
2020/12/04 01:47:08;;;;;;;35.00;26.20;;;2.30;99.90;;;;;;6176814;28;20473;-61
2020/12/04 01:50:10;;;;;;;31.20;24.00;;;2.30;99.90;;;;;;6176604;28;20790;-61
2020/12/04 01:53:12;;;;;;;36.40;25.27;;;2.30;99.90;;;;;;6177200;28;20473;-61
2020/12/04 01:56:16;;;;;;;30.03;23.87;;;2.30;99.90;;;;;;6177025;28;20473;-62
2020/12/04 01:59:18;;;;;;;36.47;26.00;;;2.30;99.90;;;;;;6176628;28;20481;-62
2020/12/04 02:02:23;;;;;;;34.80;23.90;;;2.40;99.90;;;;;;6176424;28;20812;-62
2020/12/04 02:05:27;;;;;;;38.60;26.60;;;2.40;99.90;;;;;;6176703;28;20989;-62
2020/12/04 02:08:39;;;;;;;42.47;27.90;;;2.40;99.90;;;;;;6176792;28;20466;-62
2020/12/04 02:11:43;;;;;;;35.83;24.80;;;2.40;99.90;;;;;;6176214;28;20571;-62
2020/12/04 02:14:51;;;;;;;34.57;25.47;;;2.40;99.90;;;;;;6176558;28;20476;-62
2020/12/04 02:17:55;;;;;;;38.03;24.90;;;2.50;99.90;;;;;;6176574;28;20470;-61
2020/12/04 02:21:00;;;;;;;31.50;23.67;;;2.50;99.90;;;;;;6176410;28;20826;-61
2020/12/04 02:24:03;;;;;;;36.30;26.93;;;2.50;99.90;;;;;;6167821;28;20497;-61
2020/12/04 02:27:08;;;;;;;32.80;25.33;;;2.50;99.90;;;;;;6176445;28;20478;-62
2020/12/04 02:30:12;;;;;;;32.73;25.87;;;2.60;99.90;;;;;;6176595;28;20970;-62
2020/12/04 02:33:14;;;;;;;35.37;24.17;;;2.60;99.90;;;;;;6176742;28;20611;-62
2020/12/04 02:36:17;;;;;;;38.60;26.77;;;2.60;99.90;;;;;;6176691;28;20810;-63
2020/12/04 02:39:20;;;;;;;30.67;24.33;;;2.70;99.90;;;;;;6177039;28;20492;-62
2020/12/04 02:42:22;;;;;;;35.50;24.10;;;2.70;99.90;;;;;;6180762;28;20481;-63
2020/12/04 02:45:24;;;;;;;27.20;23.07;;;2.70;99.90;;;;;;6180861;28;20564;-63
2020/12/04 02:48:26;;;;;;;34.13;26.37;;;2.70;99.90;;;;;;6180532;28;20508;-63
2020/12/04 02:51:30;;;;;;;35.13;25.83;;;2.80;99.90;;;;;;6180396;28;20823;-63
2020/12/04 02:54:32;;;;;;;31.87;25.63;;;2.80;99.90;;;;;;6181286;28;20470;-63
2020/12/04 02:57:34;;;;;;;32.57;24.93;;;2.80;99.90;;;;;;6180902;28;20473;-63
2020/12/04 03:00:36;;;;;;;33.27;24.43;;;2.80;99.90;;;;;;6180250;28;20505;-63
2020/12/04 03:03:39;;;;;;;31.20;24.17;;;2.70;99.90;;;;;;6180419;28;20536;-63
2020/12/04 03:06:42;;;;;;;37.03;25.50;;;2.70;99.90;;;;;;6180396;28;20496;-63
2020/12/04 03:09:44;;;;;;;33.87;23.73;;;2.60;99.90;;;;;;6180243;28;20825;-63
2020/12/04 03:12:46;;;;;;;35.03;24.83;;;2.50;99.90;;;;;;6180265;28;20473;-63
2020/12/04 03:15:49;;;;;;;35.17;25.67;;;2.50;99.90;;;;;;6180106;28;20474;-63
2020/12/04 03:18:51;;;;;;;38.27;27.30;;;2.40;99.90;;;;;;6180023;28;20982;-63
2020/12/04 03:21:54;;;;;;;36.23;25.27;;;2.40;99.90;;;;;;6179878;28;20481;-62
2020/12/04 03:24:56;;;;;;;34.77;25.20;;;2.40;99.90;;;;;;6180361;28;20477;-61
2020/12/04 03:27:59;;;;;;;35.73;26.00;;;2.40;99.90;;;;;;6170549;28;20550;-62
2020/12/04 03:31:01;;;;;;;36.97;27.43;;;2.50;99.90;;;;;;6180081;28;20549;-62
2020/12/04 03:34:03;;;;;;;38.57;26.03;;;2.40;99.90;;;;;;6179687;28;20492;-62
2020/12/04 03:37:07;;;;;;;31.40;23.00;;;2.40;99.90;;;;;;6179774;28;20486;-62
2020/12/04 03:40:09;;;;;;;31.03;25.83;;;2.40;99.90;;;;;;6179798;28;20482;-62
2020/12/04 03:43:11;;;;;;;38.03;27.20;;;2.30;99.90;;;;;;6179839;28;20481;-62
2020/12/04 03:46:14;;;;;;;42.40;28.73;;;2.30;99.90;;;;;;6179679;28;20486;-62
2020/12/04 03:49:17;;;;;;;39.00;27.73;;;2.30;99.90;;;;;;6179553;28;20474;-63
2020/12/04 03:52:20;;;;;;;36.13;26.83;;;2.30;99.90;;;;;;6178984;28;20969;-63
2020/12/04 03:55:23;;;;;;;40.60;27.67;;;2.30;99.90;;;;;;6179228;28;20481;-63
2020/12/04 03:58:25;;;;;;;37.50;26.30;;;2.30;99.90;;;;;;6179182;28;20581;-63
2020/12/04 04:01:27;;;;;;;39.97;29.77;;;2.30;99.90;;;;;;6178690;28;20478;-63
2020/12/04 04:04:30;;;;;;;39.03;28.73;;;2.30;99.90;;;;;;6179274;28;20556;-63
2020/12/04 04:07:33;;;;;;;43.10;30.00;;;2.30;99.90;;;;;;6179857;28;20477;-63
2020/12/04 04:10:35;;;;;;;35.90;27.30;;;2.20;99.90;;;;;;6179008;28;20489;-63
2020/12/04 04:13:37;;;;;;;34.43;27.10;;;2.20;99.90;;;;;;6179204;28;20946;-63
2020/12/04 04:16:40;;;;;;;45.17;31.70;;;2.20;99.90;;;;;;6178120;28;20944;-63
2020/12/04 04:19:42;;;;;;;40.97;28.10;;;2.20;99.90;;;;;;6178586;28;20446;-63
2020/12/04 04:22:45;;;;;;;43.37;29.00;;;2.10;99.90;;;;;;6178068;28;20449;-63
2020/12/04 04:25:47;;;;;;;40.83;30.07;;;2.10;99.90;;;;;;6178220;28;20933;-63
2020/12/04 04:28:50;;;;;;;45.50;31.33;;;2.20;99.90;;;;;;6174092;28;20450;-63
2020/12/04 04:31:52;;;;;;;44.40;31.67;;;2.20;99.90;;;;;;6178355;28;20474;-62
2020/12/04 04:34:55;;;;;;;46.97;30.73;;;2.20;99.90;;;;;;6178250;28;20450;-62
2020/12/04 04:37:58;;;;;;;41.77;29.20;;;2.10;99.90;;;;;;6178526;28;20434;-63
2020/12/04 04:41:00;;;;;;;49.10;32.03;;;2.20;99.90;;;;;;6177915;28;20484;-62
2020/12/04 04:44:03;;;;;;;42.77;30.10;;;2.10;99.90;;;;;;6178292;28;20466;-63
2020/12/04 04:47:10;;;;;;;44.10;30.90;;;2.20;99.90;;;;;;6178132;28;20961;-62
2020/12/04 04:50:13;;;;;;;48.03;30.10;;;2.20;99.90;;;;;;6177798;28;20544;-63
2020/12/04 04:53:17;;;;;;;50.20;35.13;;;2.20;99.90;;;;;;6177880;28;20477;-63
2020/12/04 04:56:19;;;;;;;45.40;31.03;;;2.20;99.90;;;;;;6177748;28;20474;-63
2020/12/04 04:59:22;;;;;;;43.40;29.43;;;2.20;99.90;;;;;;6178020;28;20545;-62
2020/12/04 05:02:24;;;;;;;43.67;30.07;;;2.20;99.90;;;;;;6177380;28;20824;-62
2020/12/04 05:05:45;;;;;;;45.83;30.33;;;2.20;99.90;;;;;;6177555;28;20477;-63
2020/12/04 05:08:52;;;;;;;46.93;30.80;;;2.10;99.90;;;;;;6177811;28;20472;-62
2020/12/04 05:11:56;;;;;;;43.90;30.40;;;2.10;99.90;;;;;;6177819;28;20478;-62
2020/12/04 05:14:58;;;;;;;43.57;31.40;;;2.10;99.90;;;;;;6177404;28;20866;-63
2020/12/04 05:18:06;;;;;;;47.13;32.13;;;2.00;99.90;;;;;;6177309;28;20816;-62
2020/12/04 05:21:09;;;;;;;51.77;34.40;;;2.00;99.90;;;;;;6177118;28;20952;-63
2020/12/04 05:24:12;;;;;;;49.20;34.60;;;2.00;99.90;;;;;;6177730;28;20470;-63
2020/12/04 05:27:25;;;;;;;43.63;30.60;;;2.00;99.90;;;;;;6177749;28;20488;-63
2020/12/04 05:30:28;;;;;;;49.37;33.17;;;2.00;99.90;;;;;;6177393;28;20478;-62
2020/12/04 05:33:30;;;;;;;50.73;33.30;;;2.00;99.90;;;;;;6176973;28;21086;-60
2020/12/04 05:36:32;;;;;;;47.30;30.10;;;1.90;99.90;;;;;;6177256;28;20819;-61
2020/12/04 05:39:42;;;;;;;43.80;29.47;;;1.80;99.90;;;;;;6177714;28;20855;-61
2020/12/04 05:42:44;;;;;;;50.60;31.60;;;1.90;99.90;;;;;;6177338;28;20804;-61
2020/12/04 05:45:47;;;;;;;46.37;33.30;;;1.90;99.90;;;;;;6176867;28;20478;-61
2020/12/04 05:48:56;;;;;;;47.63;31.40;;;1.90;99.90;;;;;;6176553;28;20814;-61
2020/12/04 05:51:59;;;;;;;48.93;31.83;;;1.90;99.90;;;;;;6177234;28;20474;-61
2020/12/04 05:55:03;;;;;;;52.93;33.57;;;1.90;99.90;;;;;;6176782;28;20474;-61
2020/12/04 05:58:12;;;;;;;49.17;31.00;;;1.80;99.90;;;;;;6176814;28;20469;-62
2020/12/04 06:01:16;;;;;;;48.73;33.13;;;1.80;99.90;;;;;;6176649;28;21000;-62
2020/12/04 06:04:19;;;;;;;46.50;32.07;;;1.80;99.90;;;;;;6176683;28;20474;-62
2020/12/04 06:07:26;;;;;;;53.33;32.37;;;1.80;99.90;;;;;;6176665;28;20482;-63
2020/12/04 06:10:31;;;;;;;53.57;35.73;;;1.70;99.90;;;;;;6176862;28;20977;-62
2020/12/04 06:13:36;;;;;;;50.97;35.30;;;1.70;99.90;;;;;;6176540;28;20552;-61
2020/12/04 06:16:39;;;;;;;61.97;36.17;;;1.80;99.90;;;;;;6180685;28;20795;-61
2020/12/04 06:19:42;;;;;;;60.10;34.30;;;1.80;99.90;;;;;;6181021;28;20456;-61
2020/12/04 06:23:15;;;;;;;59.33;34.37;;;1.80;99.90;;;;;;6181575;28;20460;-62
2020/12/04 06:26:18;;;;;;;63.50;36.90;;;1.80;99.90;;;;;;6181498;28;20485;-61
2020/12/04 06:29:21;;;;;;;59.47;34.00;;;1.80;99.90;;;;;;6181705;28;20481;-61
2020/12/04 06:32:34;;;;;;;56.87;35.27;;;1.80;99.90;;;;;;6181212;28;20473;-61
2020/12/04 06:35:41;;;;;;;57.03;33.40;;;1.70;99.90;;;;;;6181250;28;20482;-61
2020/12/04 06:38:46;;;;;;;57.73;35.50;;;1.80;99.90;;;;;;6172033;28;20474;-61
2020/12/04 06:41:49;;;;;;;55.70;34.20;;;1.80;99.90;;;;;;6180864;28;20856;-61
2020/12/04 06:44:52;;;;;;;60.93;36.90;;;1.90;99.90;;;;;;6180679;28;20574;-61
2020/12/04 06:48:10;;;;;;;55.83;33.57;;;1.80;99.90;;;;;;6180807;28;20567;-62
2020/12/04 06:51:18;;;;;;;60.70;35.37;;;1.80;99.90;;;;;;6180819;28;20826;-62
2020/12/04 06:54:21;;;;;;;56.77;35.30;;;1.80;99.90;;;;;;6180689;28;20996;-62
2020/12/04 06:57:25;;;;;;;60.17;34.97;;;1.80;99.90;;;;;;6181032;28;20965;-62
2020/12/04 07:00:27;;;;;;;62.43;36.17;;;1.90;99.90;;;;;;6180497;28;20496;-62
2020/12/04 07:03:29;;;;;;;54.80;35.20;;;1.90;99.90;;;;;;6180630;28;20473;-62
2020/12/04 07:06:32;;;;;;;62.77;38.27;;;2.00;99.90;;;;;;6180771;28;20477;-62
2020/12/04 07:09:35;;;;;;;62.37;35.50;;;1.90;99.90;;;;;;6180304;28;20962;-62
2020/12/04 07:12:39;;;;;;;58.50;36.17;;;1.90;99.90;;;;;;6180294;28;20492;-63
2020/12/04 07:15:42;;;;;;;54.50;33.80;;;1.90;99.90;;;;;;6180209;28;20558;-63
2020/12/04 07:18:49;;;;;;;70.73;38.10;;;2.00;99.90;;;;;;6180539;28;20473;-64
2020/12/04 07:21:51;;;;;;;57.50;36.80;;;2.00;99.90;;;;;;6179919;28;20485;-62
2020/12/04 07:24:58;;;;;;;66.17;38.03;;;2.00;99.90;;;;;;6179788;28;20512;-62
2020/12/04 07:28:03;;;;;;;62.33;32.30;;;2.00;99.90;;;;;;6180020;28;20492;-62
2020/12/04 07:31:15;;;;;;;65.77;37.70;;;2.10;99.90;;;;;;6180058;28;20592;-63
2020/12/04 07:34:30;;;;;;;55.97;34.47;;;2.10;99.90;;;;;;6179955;28;20482;-64
2020/12/04 07:37:36;;;;;;;62.30;37.70;;;2.10;99.90;;;;;;6179834;28;20565;-65
2020/12/04 07:40:40;;;;;;;59.40;39.20;;;2.10;99.90;;;;;;6179367;28;20493;-64
2020/12/04 07:43:46;;;;;;;67.97;36.10;;;2.20;99.90;;;;;;6179587;28;20458;-60
2020/12/04 07:46:59;;;;;;;66.60;35.57;;;2.20;99.90;;;;;;6179543;28;20466;-60
2020/12/04 07:50:02;;;;;;;59.97;33.23;;;2.20;99.90;;;;;;6179336;28;20481;-60
2020/12/04 07:53:04;;;;;;;53.93;33.33;;;2.20;99.90;;;;;;6179164;28;20485;-60
2020/12/04 07:56:10;;;;;;;67.73;36.07;;;2.30;99.90;;;;;;6179387;28;20975;-60
2020/12/04 07:59:18;;;;;;;67.43;36.50;;;2.30;99.90;;;;;;6179086;28;20466;-60
2020/12/04 08:02:23;;;;;;;59.67;35.90;;;2.30;99.90;;;;;;6179086;28;20818;-60
2020/12/04 08:05:25;;;;;;;59.47;33.83;;;2.20;99.90;;;;;;6179331;28;20470;-60
2020/12/04 08:08:28;;;;;;;58.73;35.50;;;2.20;99.90;;;;;;6178823;28;20473;-60
2020/12/04 08:11:30;;;;;;;54.53;33.83;;;2.30;99.90;;;;;;6178868;28;20813;-60
2020/12/04 08:14:35;;;;;;;55.80;35.40;;;2.30;99.90;;;;;;6178942;28;20810;-59
2020/12/04 08:17:38;;;;;;;63.10;36.50;;;2.40;99.90;;;;;;6178927;28;20480;-60
2020/12/04 08:20:40;;;;;;;65.40;34.40;;;2.40;99.90;;;;;;6178870;28;20493;-60
2020/12/04 08:23:45;;;;;;;57.80;35.20;;;2.30;99.90;;;;;;6178779;28;20501;-59
2020/12/04 08:27:04;;;;;;;60.80;37.60;;;2.40;99.90;;;;;;6178514;28;20493;-60
2020/12/04 08:30:14;;;;;;;67.30;36.80;;;2.50;99.90;;;;;;6178369;28;20809;-60
2020/12/04 08:33:16;;;;;;;61.40;36.73;;;2.50;99.90;;;;;;6178287;28;20488;-60
2020/12/04 08:36:19;;;;;;;68.73;36.97;;;2.50;99.90;;;;;;6178297;28;20473;-61
2020/12/04 08:39:32;;;;;;;68.27;35.00;;;2.50;99.90;;;;;;6177807;28;20924;-60
2020/12/04 08:42:35;;;;;;;60.67;36.13;;;2.50;99.90;;;;;;6178186;28;20484;-58
2020/12/04 08:45:40;;;;;;;61.87;36.00;;;2.50;99.90;;;;;;6178181;28;20492;-59
2020/12/04 08:48:42;;;;;;;58.77;37.57;;;2.60;99.90;;;;;;6177894;28;20474;-60
2020/12/04 08:51:47;;;;;;;62.53;35.40;;;2.60;99.90;;;;;;6177685;28;20478;-60
2020/12/04 08:54:49;;;;;;;70.30;38.00;;;2.60;99.90;;;;;;6178197;28;20816;-60
2020/12/04 08:57:53;;;;;;;66.50;35.30;;;2.70;99.90;;;;;;6177637;28;20809;-60
2020/12/04 09:00:58;;;;;;;61.47;39.20;;;2.80;99.90;;;;;;6177650;28;20474;-59
2020/12/04 09:04:00;;;;;;;67.40;37.87;;;2.80;99.90;;;;;;6177886;28;20482;-59
2020/12/04 09:07:02;;;;;;;59.77;35.13;;;2.80;99.90;;;;;;6177693;28;20628;-59
2020/12/04 09:10:06;;;;;;;73.00;39.60;;;2.90;99.90;;;;;;6177557;28;20473;-59
2020/12/04 09:13:10;;;;;;;64.97;37.47;;;3.00;99.90;;;;;;6177578;28;20482;-59
2020/12/04 09:16:13;;;;;;;66.03;38.77;;;3.00;99.90;;;;;;6177778;28;20818;-59
2020/12/04 09:19:16;;;;;;;61.33;36.27;;;3.00;99.90;;;;;;6177249;28;20478;-60
2020/12/04 09:22:19;;;;;;;58.73;34.40;;;3.00;99.90;;;;;;6177203;28;20481;-60
2020/12/04 09:25:22;;;;;;;64.23;35.73;;;3.10;99.90;;;;;;6177297;28;20478;-57
2020/12/04 09:28:25;;;;;;;53.07;31.43;;;3.00;99.90;;;;;;6168468;28;20493;-57
2020/12/04 09:31:32;;;;;;;53.40;30.00;;;3.00;99.90;;;;;;6163838;28;20481;-60
2020/12/04 09:34:35;;;;;;;58.67;32.97;;;3.00;99.90;;;;;;6174490;28;20483;-60
2020/12/04 09:37:38;;;;;;;56.77;31.77;;;3.00;99.90;;;;;;6152717;29;20820;-58
2020/12/04 09:40:40;;;;;;;53.10;31.30;;;3.00;99.90;;;;;;6152041;28;20815;-60
2020/12/04 09:43:43;;;;;;;43.07;27.70;;;3.00;99.90;;;;;;6159699;28;20438;-59
2020/12/04 09:46:46;;;;;;;39.40;27.50;;;3.00;99.90;;;;;;6176812;28;20448;-60
2020/12/04 09:49:49;;;;;;;39.97;27.50;;;3.00;99.90;;;;;;6176176;28;20462;-60
2020/12/04 09:52:52;;;;;;;48.27;29.47;;;3.10;99.90;;;;;;6176642;28;20945;-59
2020/12/04 09:55:54;;;;;;;45.23;28.70;;;3.20;99.90;;;;;;6176673;28;20915;-67
2020/12/04 09:58:56;;;;;;;53.57;32.20;;;3.30;99.90;;;;;;6176766;28;20441;-62
2020/12/04 10:02:00;;;;;;;46.00;28.67;;;3.50;99.90;;;;;;6160091;28;20471;-60
2020/12/04 10:05:03;;;;;;;49.63;28.17;;;3.50;99.90;;;;;;6152277;29;20783;-67
2020/12/04 10:08:06;;;;;;;38.43;25.90;;;3.60;99.90;;;;;;6152948;29;20471;-61
2020/12/04 10:11:09;;;;;;;41.17;26.47;;;3.50;99.90;;;;;;6152506;29;20521;-66
2020/12/04 10:14:11;;;;;;;38.00;24.77;;;3.50;99.90;;;;;;6152665;29;20487;-67
2020/12/04 10:17:15;;;;;;;39.40;26.17;;;3.50;99.90;;;;;;6152382;29;20803;-59
2020/12/04 10:20:17;;;;;;;43.53;25.50;;;3.50;99.90;;;;;;6172038;28;20489;-59
2020/12/04 10:23:19;;;;;;;33.27;23.57;;;3.50;99.90;;;;;;6176445;28;20481;-60
2020/12/04 10:26:22;;;;;;;44.67;28.87;;;3.50;99.90;;;;;;6171834;28;20823;-64
2020/12/04 10:29:24;;;;;;;38.73;25.93;;;3.60;99.90;;;;;;6152178;29;20514;-60
2020/12/04 10:32:27;;;;;;;39.83;25.43;;;3.70;99.90;;;;;;6152011;29;20474;-65
2020/12/04 10:35:30;;;;;;;40.33;23.50;;;3.80;99.90;;;;;;6163867;28;20474;-64
2020/12/04 10:38:33;;;;;;;34.83;23.37;;;3.90;99.90;;;;;;6176182;28;20580;-61
2020/12/04 10:41:36;;;;;;;34.50;25.57;;;4.00;99.90;;;;;;6176181;28;20485;-63
2020/12/04 10:44:39;;;;;;;34.80;25.50;;;4.10;99.90;;;;;;6176105;28;20840;-61
2020/12/04 10:47:42;;;;;;;42.40;25.97;;;4.20;99.90;;;;;;6175868;28;20564;-64
2020/12/04 10:50:45;;;;;;;32.87;21.67;;;4.30;99.90;;;;;;6175984;28;20480;-59
2020/12/04 10:53:47;;;;;;;38.70;23.57;;;4.30;99.90;;;;;;6166972;28;20474;-59
2020/12/04 10:56:54;;;;;;;34.27;24.03;;;4.40;99.90;;;;;;6176100;28;20488;-60
2020/12/04 10:59:56;;;;;;;38.33;23.73;;;4.40;99.90;;;;;;6175990;28;20466;-59
2020/12/04 11:03:05;;;;;;;31.40;21.73;;;4.50;99.90;;;;;;6180121;28;20488;-58
2020/12/04 11:06:07;;;;;;;34.27;22.67;;;4.50;99.90;;;;;;6180284;28;20567;-61
2020/12/04 11:09:12;;;;;;;28.50;21.83;;;4.60;99.90;;;;;;6180062;28;20480;-61
2020/12/04 11:12:15;;;;;;;47.40;27.90;;;4.70;99.90;;;;;;6179896;28;20832;-58
2020/12/04 11:15:17;;;;;;;45.43;29.23;;;4.70;99.90;;;;;;6180225;28;20818;-57
2020/12/04 11:18:21;;;;;;;53.30;30.70;;;4.50;99.90;;;;;;6179800;28;20478;-57
2020/12/04 11:21:27;;;;;;;43.53;29.30;;;4.40;99.90;;;;;;6179597;28;20496;-56
2020/12/04 11:24:30;;;;;;;50.73;31.67;;;4.30;99.90;;;;;;6179682;28;20484;-60
2020/12/04 11:27:33;;;;;;;48.90;30.47;;;4.30;99.90;;;;;;6168972;28;20475;-60
2020/12/04 11:30:35;;;;;;;47.77;31.30;;;4.30;99.90;;;;;;6155164;29;20483;-60
2020/12/04 11:33:38;;;;;;;47.87;30.93;;;4.30;99.90;;;;;;6155402;29;20491;-64
2020/12/04 11:36:40;;;;;;;47.70;28.73;;;4.40;99.90;;;;;;6176383;28;20478;-61
2020/12/04 11:39:44;;;;;;;43.90;28.03;;;4.50;99.90;;;;;;6178987;28;20500;-61
2020/12/04 11:42:46;;;;;;;46.20;28.70;;;4.60;99.90;;;;;;6179273;28;20485;-60
2020/12/04 11:45:49;;;;;;;52.03;31.37;;;4.60;99.90;;;;;;6179402;28;20477;-62
2020/12/04 11:48:56;;;;;;;43.30;30.63;;;4.70;99.90;;;;;;6179174;28;20847;-64
2020/12/04 11:51:58;;;;;;;50.53;30.97;;;4.60;99.90;;;;;;6178948;28;20478;-62
2020/12/04 11:55:00;;;;;;;52.53;31.00;;;4.70;99.90;;;;;;6179121;28;20473;-63
2020/12/04 11:58:03;;;;;;;49.67;34.93;;;4.70;99.90;;;;;;6174478;28;20965;-64
2020/12/04 12:01:06;;;;;;;53.67;31.47;;;4.70;99.90;;;;;;6178727;28;20514;-61
2020/12/04 12:04:15;;;;;;;43.90;30.20;;;4.70;99.90;;;;;;6178636;28;20532;-64
2020/12/04 12:07:18;;;;;;;52.03;30.67;;;4.80;99.90;;;;;;6178763;28;20474;-61
2020/12/04 12:10:22;;;;;;;49.67;29.33;;;5.00;99.90;;;;;;6178589;28;20803;-65
2020/12/04 12:13:25;;;;;;;46.27;28.40;;;5.00;99.60;;;;;;6177583;28;20473;-62
2020/12/04 12:16:27;;;;;;;48.30;30.43;;;5.20;99.30;;;;;;6170239;28;20479;-63
2020/12/04 12:19:32;;;;;;;47.87;32.90;;;5.30;99.20;;;;;;6170787;28;20473;-60
2020/12/04 12:22:35;;;;;;;39.97;27.10;;;5.30;99.30;;;;;;6178189;28;20481;-62
2020/12/04 12:25:37;;;;;;;52.53;31.47;;;5.30;98.80;;;;;;6178230;28;20484;-63
2020/12/04 12:28:40;;;;;;;48.23;30.20;;;5.40;98.50;;;;;;6156691;28;20494;-64
2020/12/04 12:31:43;;;;;;;46.70;31.17;;;5.40;98.60;;;;;;6154501;29;20473;-60
2020/12/04 12:35:02;;;;;;;52.63;29.80;;;5.30;98.40;;;;;;6159433;28;20877;-59
2020/12/04 12:38:04;;;;;;;47.93;29.93;;;5.20;98.50;;;;;;6177799;28;20469;-57
2020/12/04 12:41:07;;;;;;;52.10;30.90;;;5.00;98.50;;;;;;6177557;28;20556;-59
2020/12/04 12:44:09;;;;;;;45.23;28.73;;;4.90;98.60;;;;;;6178198;28;20480;-63
2020/12/04 12:47:13;;;;;;;50.00;29.80;;;4.90;98.90;;;;;;6173744;28;20628;-63
2020/12/04 12:50:16;;;;;;;44.63;26.50;;;4.80;99.00;;;;;;6188155;28;20956;-63
2020/12/04 12:53:18;;;;;;;45.07;28.33;;;4.70;99.20;;;;;;6200009;28;20465;-58
2020/12/04 12:56:24;;;;;;;42.17;29.53;;;4.60;99.40;;;;;;6197540;28;21052;-58
2020/12/04 12:59:26;;;;;;;54.73;30.23;;;4.50;99.50;;;;;;6173640;28;20474;-58
2020/12/04 13:02:29;;;;;;;45.73;28.73;;;4.40;99.80;;;;;;6187223;28;20469;-59
2020/12/04 13:05:33;;;;;;;45.30;27.80;;;4.30;99.90;;;;;;6187906;28;20818;-58
2020/12/04 13:08:38;;;;;;;50.63;26.60;;;4.30;99.90;;;;;;6199114;28;20825;-59
2020/12/04 13:11:41;;;;;;;52.03;28.27;;;4.30;99.90;;;;;;6189018;28;20479;-59
2020/12/04 13:14:43;;;;;;;44.20;25.50;;;4.20;99.90;;;;;;6199318;28;20488;-58
2020/12/04 13:17:47;;;;;;;37.60;24.47;;;4.20;99.90;;;;;;6180468;28;20973;-60
2020/12/04 13:20:50;;;;;;;42.90;24.57;;;4.20;99.90;;;;;;6174907;28;20524;-58
2020/12/04 13:23:55;;;;;;;50.27;29.63;;;4.20;99.90;;;;;;6174644;28;20565;-58
2020/12/04 13:27:00;;;;;;;48.80;31.37;;;4.20;99.90;;;;;;6167742;28;20615;-58
2020/12/04 13:30:04;;;;;;;53.10;30.83;;;4.30;99.90;;;;;;6195728;28;20469;-58
2020/12/04 13:33:08;;;;;;;50.33;27.33;;;4.40;99.90;;;;;;6198614;28;21010;-58
2020/12/04 13:36:11;;;;;;;49.10;30.17;;;4.30;99.90;;;;;;6186515;28;21008;-57
2020/12/04 13:39:13;;;;;;;49.80;30.30;;;4.30;99.90;;;;;;6185936;28;20481;-58
2020/12/04 13:42:16;;;;;;;55.20;31.73;;;4.30;99.90;;;;;;6186958;28;20480;-58
2020/12/04 13:45:18;;;;;;;48.77;32.00;;;4.10;99.90;;;;;;6193370;28;20523;-57
2020/12/04 13:48:20;;;;;;;52.27;28.13;;;4.20;99.90;;;;;;6187151;28;20477;-60
2020/12/04 13:51:23;;;;;;;50.53;31.00;;;4.20;99.90;;;;;;6182188;28;20484;-58
2020/12/04 13:54:26;;;;;;;49.83;29.73;;;4.20;99.90;;;;;;6188404;28;20473;-58
2020/12/04 13:57:29;;;;;;;46.50;28.80;;;4.30;99.90;;;;;;6193490;28;20509;-58
2020/12/04 14:00:31;;;;;;;56.17;31.23;;;4.30;99.90;;;;;;6174319;28;20474;-57
2020/12/04 14:03:34;;;;;;;50.30;31.20;;;4.20;99.90;;;;;;6184610;28;20473;-58
2020/12/04 14:06:38;;;;;;;54.30;31.80;;;4.20;99.90;;;;;;6179956;28;20477;-58
2020/12/04 14:09:40;;;;;;;48.33;31.40;;;4.20;99.90;;;;;;6185044;28;20470;-58
2020/12/04 14:12:43;;;;;;;54.03;33.37;;;4.10;99.90;;;;;;6182923;28;20470;-58
2020/12/04 14:15:45;;;;;;;55.33;32.80;;;4.00;99.90;;;;;;6188397;28;20481;-59
2020/12/04 14:18:47;;;;;;;53.97;33.27;;;4.00;99.90;;;;;;6185930;28;20492;-59
2020/12/04 14:21:51;;;;;;;61.53;31.97;;;3.90;99.90;;;;;;6186939;28;20480;-59
2020/12/04 14:24:53;;;;;;;58.60;33.90;;;3.90;99.90;;;;;;6187843;28;20474;-59
2020/12/04 14:27:55;;;;;;;60.37;32.40;;;3.80;99.90;;;;;;6183661;28;20490;-58
2020/12/04 14:30:58;;;;;;;51.13;31.70;;;3.70;99.90;;;;;;6184429;28;20478;-59
2020/12/04 14:34:00;;;;;;;59.03;32.30;;;3.70;99.90;;;;;;6184060;28;20473;-59
2020/12/04 14:37:03;;;;;;;61.80;35.67;;;3.80;99.90;;;;;;6187963;28;20464;-59
2020/12/04 14:43:26;;;;;;;53.03;31.67;;;3.80;99.90;;;;;;6200858;28;20468;-59
2020/12/04 14:46:28;;;;;;;54.23;30.67;;;3.70;99.90;;;;;;6200871;28;20496;-58
2020/12/04 14:49:30;;;;;;;57.03;32.40;;;3.60;99.90;;;;;;6194195;28;20484;-58
2020/12/04 14:52:34;;;;;;;55.10;33.60;;;3.60;99.90;;;;;;6201031;28;20480;-58
2020/12/04 14:55:37;;;;;;;49.63;34.23;;;3.60;99.90;;;;;;6200933;28;20477;-59
2020/12/04 14:58:40;;;;;;;59.00;32.63;;;3.70;99.90;;;;;;6201799;28;20952;-59
2020/12/04 15:01:45;;;;;;;57.47;32.47;;;3.60;99.90;;;;;;6202370;28;20552;-62
2020/12/04 15:04:47;;;;;;;56.87;34.20;;;3.60;99.90;;;;;;6197535;28;20453;-57
2020/12/04 15:07:50;;;;;;;58.33;33.60;;;3.50;99.90;;;;;;6192894;28;20777;-57
2020/12/04 15:10:53;;;;;;;55.13;32.57;;;3.40;99.90;;;;;;6202397;28;20956;-57
2020/12/04 15:13:55;;;;;;;56.90;34.20;;;3.50;99.90;;;;;;6202430;28;20460;-58
2020/12/04 15:16:57;;;;;;;51.87;31.57;;;3.40;99.90;;;;;;6201954;28;20452;-58
2020/12/04 15:20:00;;;;;;;50.93;31.33;;;3.40;99.90;;;;;;6202150;28;20476;-58
2020/12/04 15:23:04;;;;;;;50.30;33.40;;;3.50;99.90;;;;;;6201876;28;20898;-59
2020/12/04 15:26:06;;;;;;;56.17;33.47;;;3.40;99.90;;;;;;6201545;28;20473;-59
2020/12/04 15:29:08;;;;;;;63.10;33.87;;;3.50;99.90;;;;;;6154719;28;20471;-62
2020/12/04 15:32:13;;;;;;;54.50;36.93;;;3.50;99.90;;;;;;6153785;29;20474;-60
2020/12/04 15:35:15;;;;;;;59.97;33.93;;;3.40;99.90;;;;;;6162770;28;20474;-60
2020/12/04 15:38:20;;;;;;;60.70;39.20;;;3.40;99.90;;;;;;6195891;28;20473;-61
2020/12/04 15:41:23;;;;;;;55.60;33.30;;;3.50;99.90;;;;;;6200908;28;20477;-60
2020/12/04 15:44:29;;;;;;;53.77;34.23;;;3.50;99.90;;;;;;6195948;28;20474;-61